sensor_id;sensor_type;location;lat;lon;timestamp;pressure;altitude;pressure_sealevel;temperature;humidity
64253;BME280;50592;52.958;-7.470;2023-02-19T00:01:33;101512.84;;;8.17;100.00
64253;BME280;50592;52.958;-7.470;2023-02-19T00:04:05;101517.31;;;8.17;100.00
64253;BME280;50592;52.958;-7.470;2023-02-19T00:06:33;101516.53;;;8.15;100.00
64253;BME280;50592;52.958;-7.470;2023-02-19T00:09:00;101522.66;;;8.15;100.00
64253;BME280;50592;52.958;-7.470;2023-02-19T00:11:30;101533.91;;;8.17;100.00
64253;BME280;50592;52.958;-7.470;2023-02-19T00:13:57;101537.22;;;8.21;100.00
64253;BME280;50592;52.958;-7.470;2023-02-19T00:16:28;101542.28;;;8.24;100.00
64253;BME280;50592;52.958;-7.470;2023-02-19T00:18:56;101540.50;;;8.25;100.00
64253;BME280;50592;52.958;-7.470;2023-02-19T00:21:23;101537.84;;;8.25;100.00
64253;BME280;50592;52.958;-7.470;2023-02-19T00:24:01;101544.81;;;8.26;100.00
64253;BME280;50592;52.958;-7.470;2023-02-19T00:26:27;101545.75;;;8.25;100.00
64253;BME280;50592;52.958;-7.470;2023-02-19T00:28:55;101540.38;;;8.26;100.00
64253;BME280;50592;52.958;-7.470;2023-02-19T00:33:50;101550.94;;;8.26;100.00
64253;BME280;50592;52.958;-7.470;2023-02-19T00:36:17;101553.66;;;8.25;100.00
64253;BME280;50592;52.958;-7.470;2023-02-19T00:38:43;101557.88;;;8.27;100.00
64253;BME280;50592;52.958;-7.470;2023-02-19T00:41:11;101552.50;;;8.29;100.00
64253;BME280;50592;52.958;-7.470;2023-02-19T00:43:58;101549.75;;;8.30;100.00
64253;BME280;50592;52.958;-7.470;2023-02-19T00:46:30;101554.19;;;8.30;100.00
64253;BME280;50592;52.958;-7.470;2023-02-19T00:48:56;101548.19;;;8.28;100.00
64253;BME280;50592;52.958;-7.470;2023-02-19T00:51:32;101549.66;;;8.32;100.00
64253;BME280;50592;52.958;-7.470;2023-02-19T00:53:59;101544.50;;;8.30;100.00
64253;BME280;50592;52.958;-7.470;2023-02-19T00:56:25;101546.38;;;8.28;100.00
64253;BME280;50592;52.958;-7.470;2023-02-19T00:58:51;101549.66;;;8.32;100.00
64253;BME280;50592;52.958;-7.470;2023-02-19T01:01:18;101559.88;;;8.37;100.00
64253;BME280;50592;52.958;-7.470;2023-02-19T01:03:45;101555.69;;;8.34;100.00
64253;BME280;50592;52.958;-7.470;2023-02-19T01:06:13;101559.88;;;8.37;100.00
64253;BME280;50592;52.958;-7.470;2023-02-19T01:08:40;101555.59;;;8.36;100.00
64253;BME280;50592;52.958;-7.470;2023-02-19T01:11:07;101561.66;;;8.36;100.00
64253;BME280;50592;52.958;-7.470;2023-02-19T01:13:34;101565.25;;;8.35;100.00
64253;BME280;50592;52.958;-7.470;2023-02-19T01:16:27;101559.88;;;8.37;100.00
64253;BME280;50592;52.958;-7.470;2023-02-19T01:18:53;101553.16;;;8.32;100.00
64253;BME280;50592;52.958;-7.470;2023-02-19T01:21:24;101548.91;;;8.30;100.00
64253;BME280;50592;52.958;-7.470;2023-02-19T01:23:50;101544.59;;;8.29;100.00
64253;BME280;50592;52.958;-7.470;2023-02-19T01:26:19;101538.69;;;8.25;100.00
64253;BME280;50592;52.958;-7.470;2023-02-19T01:28:46;101530.16;;;8.22;100.00
64253;BME280;50592;52.958;-7.470;2023-02-19T01:31:15;101518.66;;;8.23;100.00
64253;BME280;50592;52.958;-7.470;2023-02-19T01:33:46;101517.19;;;8.18;100.00
64253;BME280;50592;52.958;-7.470;2023-02-19T01:36:13;101506.31;;;8.10;100.00
64253;BME280;50592;52.958;-7.470;2023-02-19T01:38:39;101507.34;;;8.07;100.00
64253;BME280;50592;52.958;-7.470;2023-02-19T01:41:06;101509.66;;;7.99;100.00
64253;BME280;50592;52.958;-7.470;2023-02-19T01:43:52;101512.59;;;7.94;100.00
64253;BME280;50592;52.958;-7.470;2023-02-19T01:46:19;101517.22;;;7.91;100.00
64253;BME280;50592;52.958;-7.470;2023-02-19T01:48:45;101527.00;;;7.89;100.00
64253;BME280;50592;52.958;-7.470;2023-02-19T01:51:14;101539.84;;;7.93;100.00
64253;BME280;50592;52.958;-7.470;2023-02-19T01:53:51;101531.84;;;7.95;100.00
64253;BME280;50592;52.958;-7.470;2023-02-19T01:56:19;101538.28;;;7.91;100.00
64253;BME280;50592;52.958;-7.470;2023-02-19T01:58:46;101534.06;;;7.88;100.00
64253;BME280;50592;52.958;-7.470;2023-02-19T02:01:12;101542.78;;;7.89;100.00
64253;BME280;50592;52.958;-7.470;2023-02-19T02:03:39;101529.63;;;7.89;100.00
64253;BME280;50592;52.958;-7.470;2023-02-19T02:08:41;101534.16;;;7.87;100.00
64253;BME280;50592;52.958;-7.470;2023-02-19T02:11:25;101535.19;;;7.84;100.00
64253;BME280;50592;52.958;-7.470;2023-02-19T02:13:52;101528.16;;;7.85;100.00
64253;BME280;50592;52.958;-7.470;2023-02-19T02:16:26;101519.28;;;7.86;100.00
64253;BME280;50592;52.958;-7.470;2023-02-19T02:19:03;101520.25;;;7.85;100.00
64253;BME280;50592;52.958;-7.470;2023-02-19T02:21:58;101524.00;;;7.80;100.00
64253;BME280;50592;52.958;-7.470;2023-02-19T02:27:38;101539.47;;;7.72;100.00
64253;BME280;50592;52.958;-7.470;2023-02-19T02:30:12;101543.22;;;7.68;100.00
64253;BME280;50592;52.958;-7.470;2023-02-19T02:35:27;101547.09;;;7.62;100.00
64253;BME280;50592;52.958;-7.470;2023-02-19T02:37:58;101546.53;;;7.57;100.00
64253;BME280;50592;52.958;-7.470;2023-02-19T02:40:25;101535.56;;;7.50;100.00
64253;BME280;50592;52.958;-7.470;2023-02-19T02:42:51;101553.03;;;7.51;100.00
64253;BME280;50592;52.958;-7.470;2023-02-19T02:48:30;101549.00;;;7.45;100.00
64253;BME280;50592;52.958;-7.470;2023-02-19T02:51:13;101546.66;;;7.41;100.00
64253;BME280;50592;52.958;-7.470;2023-02-19T02:56:35;101551.09;;;7.26;100.00
64253;BME280;50592;52.958;-7.470;2023-02-19T02:59:04;101542.25;;;7.27;100.00
64253;BME280;50592;52.958;-7.470;2023-02-19T03:04:39;101535.81;;;7.18;100.00
64253;BME280;50592;52.958;-7.470;2023-02-19T03:07:37;101542.66;;;7.06;100.00
64253;BME280;50592;52.958;-7.470;2023-02-19T03:10:06;101555.88;;;7.04;100.00
64253;BME280;50592;52.958;-7.470;2023-02-19T03:12:35;101546.50;;;7.00;100.00
64253;BME280;50592;52.958;-7.470;2023-02-19T03:15:28;101536.81;;;7.01;100.00
64253;BME280;50592;52.958;-7.470;2023-02-19T03:18:17;101537.75;;;7.00;100.00
64253;BME280;50592;52.958;-7.470;2023-02-19T03:21:03;101541.25;;;7.00;100.00
64253;BME280;50592;52.958;-7.470;2023-02-19T03:23:31;101532.31;;;7.03;100.00
64253;BME280;50592;52.958;-7.470;2023-02-19T03:26:17;101547.81;;;7.07;100.00
64253;BME280;50592;52.958;-7.470;2023-02-19T03:28:51;101545.09;;;7.09;100.00
64253;BME280;50592;52.958;-7.470;2023-02-19T03:31:40;101562.47;;;7.12;100.00
64253;BME280;50592;52.958;-7.470;2023-02-19T03:34:11;101563.97;;;7.16;100.00
64253;BME280;50592;52.958;-7.470;2023-02-19T03:36:43;101560.19;;;7.20;100.00
64253;BME280;50592;52.958;-7.470;2023-02-19T03:39:12;101553.16;;;7.20;100.00
64253;BME280;50592;52.958;-7.470;2023-02-19T03:41:50;101563.59;;;7.22;100.00
64253;BME280;50592;52.958;-7.470;2023-02-19T03:44:44;101571.00;;;7.30;100.00
64253;BME280;50592;52.958;-7.470;2023-02-19T03:47:29;101577.88;;;7.32;100.00
64253;BME280;50592;52.958;-7.470;2023-02-19T03:52:40;101597.97;;;7.34;100.00
64253;BME280;50592;52.958;-7.470;2023-02-19T03:55:23;101588.84;;;7.39;100.00
64253;BME280;50592;52.958;-7.470;2023-02-19T04:00:31;101596.16;;;7.49;100.00
64253;BME280;50592;52.958;-7.470;2023-02-19T04:03:28;101612.91;;;7.48;100.00
64253;BME280;50592;52.958;-7.470;2023-02-19T04:06:01;101597.97;;;7.48;100.00
64253;BME280;50592;52.958;-7.470;2023-02-19T04:08:28;101612.91;;;7.48;100.00
64253;BME280;50592;52.958;-7.470;2023-02-19T04:11:02;101609.03;;;7.53;100.00
64253;BME280;50592;52.958;-7.470;2023-02-19T04:13:37;101606.97;;;7.59;100.00
64253;BME280;50592;52.958;-7.470;2023-02-19T04:16:10;101612.69;;;7.65;100.00
64253;BME280;50592;52.958;-7.470;2023-02-19T04:18:39;101598.69;;;7.65;100.00
64253;BME280;50592;52.958;-7.470;2023-02-19T04:21:06;101603.75;;;7.68;100.00
64253;BME280;50592;52.958;-7.470;2023-02-19T04:23:37;101604.59;;;7.68;100.00
64253;BME280;50592;52.958;-7.470;2023-02-19T04:26:05;101617.75;;;7.68;100.00
64253;BME280;50592;52.958;-7.470;2023-02-19T04:28:33;101616.81;;;7.69;100.00
64253;BME280;50592;52.958;-7.470;2023-02-19T04:31:00;101607.13;;;7.70;100.00
64253;BME280;50592;52.958;-7.470;2023-02-19T04:33:26;101608.09;;;7.69;100.00
64253;BME280;50592;52.958;-7.470;2023-02-19T04:35:52;101593.03;;;7.71;100.00
64253;BME280;50592;52.958;-7.470;2023-02-19T04:38:18;101598.28;;;7.71;100.00
64253;BME280;50592;52.958;-7.470;2023-02-19T04:40:43;101580.63;;;7.73;100.00
64253;BME280;50592;52.958;-7.470;2023-02-19T04:43:09;101581.47;;;7.74;100.00
64253;BME280;50592;52.958;-7.470;2023-02-19T04:45:38;101589.19;;;7.77;100.00
64253;BME280;50592;52.958;-7.470;2023-02-19T04:48:04;101586.94;;;7.71;100.00
64253;BME280;50592;52.958;-7.470;2023-02-19T04:50:30;101592.31;;;7.69;100.00
64253;BME280;50592;52.958;-7.470;2023-02-19T04:52:56;101577.34;;;7.69;100.00
64253;BME280;50592;52.958;-7.470;2023-02-19T04:55:22;101584.50;;;7.67;100.00
64253;BME280;50592;52.958;-7.470;2023-02-19T04:57:48;101590.69;;;7.66;100.00
64253;BME280;50592;52.958;-7.470;2023-02-19T05:00:14;101577.53;;;7.66;100.00
64253;BME280;50592;52.958;-7.470;2023-02-19T05:02:39;101577.53;;;7.66;100.00
64253;BME280;50592;52.958;-7.470;2023-02-19T05:05:05;101576.81;;;7.64;100.00
64253;BME280;50592;52.958;-7.470;2023-02-19T05:07:32;101579.53;;;7.63;100.00
64253;BME280;50592;52.958;-7.470;2023-02-19T05:09:57;101582.16;;;7.63;100.00
64253;BME280;50592;52.958;-7.470;2023-02-19T05:12:24;101590.88;;;7.63;100.00
64253;BME280;50592;52.958;-7.470;2023-02-19T05:14:50;101581.41;;;7.61;100.00
64253;BME280;50592;52.958;-7.470;2023-02-19T05:17:16;101575.00;;;7.65;100.00
64253;BME280;50592;52.958;-7.470;2023-02-19T05:19:42;101565.03;;;7.70;100.00
64253;BME280;50592;52.958;-7.470;2023-02-19T05:22:08;101572.72;;;7.73;100.00
64253;BME280;50592;52.958;-7.470;2023-02-19T05:24:33;101573.38;;;7.77;100.00
64253;BME280;50592;52.958;-7.470;2023-02-19T05:26:59;101564.53;;;7.78;100.00
64253;BME280;50592;52.958;-7.470;2023-02-19T05:29:25;101559.19;;;7.79;100.00
64253;BME280;50592;52.958;-7.470;2023-02-19T05:31:50;101563.38;;;7.82;100.00
64253;BME280;50592;52.958;-7.470;2023-02-19T05:34:16;101558.13;;;7.82;100.00
64253;BME280;50592;52.958;-7.470;2023-02-19T05:36:42;101572.03;;;7.84;100.00
64253;BME280;50592;52.958;-7.470;2023-02-19T05:39:10;101562.16;;;7.88;100.00
64253;BME280;50592;52.958;-7.470;2023-02-19T05:41:36;101563.13;;;7.87;100.00
64253;BME280;50592;52.958;-7.470;2023-02-19T05:44:03;101564.69;;;7.89;100.00
64253;BME280;50592;52.958;-7.470;2023-02-19T05:46:29;101569.00;;;7.90;100.00
64253;BME280;50592;52.958;-7.470;2023-02-19T05:48:56;101558.94;;;7.97;100.00
64253;BME280;50592;52.958;-7.470;2023-02-19T05:51:24;101559.59;;;8.01;100.00
64253;BME280;50592;52.958;-7.470;2023-02-19T05:53:51;101555.25;;;8.00;100.00
64253;BME280;50592;52.958;-7.470;2023-02-19T05:56:33;101557.06;;;7.99;100.00
64253;BME280;50592;52.958;-7.470;2023-02-19T05:59:20;101555.44;;;7.97;100.00
64253;BME280;50592;52.958;-7.470;2023-02-19T06:01:47;101546.06;;;7.92;100.00
64253;BME280;50592;52.958;-7.470;2023-02-19T06:04:14;101549.66;;;7.91;100.00
64253;BME280;50592;52.958;-7.470;2023-02-19T06:06:41;101544.50;;;7.90;100.00
64253;BME280;50592;52.958;-7.470;2023-02-19T06:09:07;101538.28;;;7.91;100.00
64253;BME280;50592;52.958;-7.470;2023-02-19T06:11:33;101525.13;;;7.91;100.00
64253;BME280;50592;52.958;-7.470;2023-02-19T06:13:59;101530.28;;;7.92;100.00
64253;BME280;50592;52.958;-7.470;2023-02-19T06:16:25;101533.56;;;7.96;100.00
64253;BME280;50592;52.958;-7.470;2023-02-19T06:18:51;101518.78;;;7.93;100.00
64253;BME280;50592;52.958;-7.470;2023-02-19T06:21:18;101520.59;;;7.93;100.00
64253;BME280;50592;52.958;-7.470;2023-02-19T06:23:44;101518.78;;;7.93;100.00
64253;BME280;50592;52.958;-7.470;2023-02-19T06:26:17;101525.66;;;7.96;100.00
64253;BME280;50592;52.958;-7.470;2023-02-19T06:28:44;101528.59;;;7.91;100.00
64253;BME280;50592;52.958;-7.470;2023-02-19T06:31:11;101533.97;;;7.90;100.00
64253;BME280;50592;52.958;-7.470;2023-02-19T06:33:37;101527.94;;;7.88;100.00
64253;BME280;50592;52.958;-7.470;2023-02-19T06:36:10;101532.25;;;7.89;100.00
64253;BME280;50592;52.958;-7.470;2023-02-19T06:38:36;101528.69;;;7.90;100.00
64253;BME280;50592;52.958;-7.470;2023-02-19T06:41:04;101523.97;;;7.95;100.00
64253;BME280;50592;52.958;-7.470;2023-02-19T06:43:31;101512.41;;;7.98;100.00
64253;BME280;50592;52.958;-7.470;2023-02-19T06:45:58;101533.25;;;8.01;100.00
64253;BME280;50592;52.958;-7.470;2023-02-19T06:48:28;101530.53;;;8.02;100.00
64253;BME280;50592;52.958;-7.470;2023-02-19T06:50:55;101527.34;;;7.97;100.00
64253;BME280;50592;52.958;-7.470;2023-02-19T06:53:21;101523.84;;;7.97;100.00
64253;BME280;50592;52.958;-7.470;2023-02-19T06:56:05;101525.47;;;7.99;100.00
64253;BME280;50592;52.958;-7.470;2023-02-19T06:58:31;101523.75;;;7.98;100.00
64253;BME280;50592;52.958;-7.470;2023-02-19T07:00:57;101530.84;;;7.98;100.00
64253;BME280;50592;52.958;-7.470;2023-02-19T07:03:23;101522.94;;;7.98;100.00
64253;BME280;50592;52.958;-7.470;2023-02-19T07:05:51;101528.31;;;7.96;100.00
64253;BME280;50592;52.958;-7.470;2023-02-19T07:08:16;101529.44;;;7.92;100.00
64253;BME280;50592;52.958;-7.470;2023-02-19T07:10:53;101531.22;;;7.91;100.00
64253;BME280;50592;52.958;-7.470;2023-02-19T07:13:19;101529.06;;;7.84;100.00
64253;BME280;50592;52.958;-7.470;2023-02-19T07:15:45;101536.03;;;7.85;100.00
64253;BME280;50592;52.958;-7.470;2023-02-19T07:18:11;101540.34;;;7.86;100.00
64253;BME280;50592;52.958;-7.470;2023-02-19T07:20:37;101544.59;;;7.88;100.00
64253;BME280;50592;52.958;-7.470;2023-02-19T07:23:02;101544.59;;;7.88;100.00
64253;BME280;50592;52.958;-7.470;2023-02-19T07:25:28;101537.72;;;7.86;100.00
64253;BME280;50592;52.958;-7.470;2023-02-19T07:27:54;101539.50;;;7.85;100.00
64253;BME280;50592;52.958;-7.470;2023-02-19T07:30:20;101540.25;;;7.87;100.00
64253;BME280;50592;52.958;-7.470;2023-02-19T07:32:45;101555.94;;;7.89;100.00
64253;BME280;50592;52.958;-7.470;2023-02-19T07:35:12;101555.84;;;7.90;100.00
64253;BME280;50592;52.958;-7.470;2023-02-19T07:37:39;101554.94;;;7.91;100.00
64253;BME280;50592;52.958;-7.470;2023-02-19T07:40:05;101574.06;;;7.93;100.00
64253;BME280;50592;52.958;-7.470;2023-02-19T07:42:31;101567.03;;;7.94;100.00
64253;BME280;50592;52.958;-7.470;2023-02-19T07:44:58;101576.09;;;7.90;100.00
64253;BME280;50592;52.958;-7.470;2023-02-19T07:47:24;101580.59;;;7.88;100.00
64253;BME280;50592;52.958;-7.470;2023-02-19T07:49:50;101577.00;;;7.89;100.00
64253;BME280;50592;52.958;-7.470;2023-02-19T07:52:15;101576.09;;;7.90;100.00
64253;BME280;50592;52.958;-7.470;2023-02-19T07:54:41;101574.38;;;7.89;100.00
64253;BME280;50592;52.958;-7.470;2023-02-19T07:57:07;101572.50;;;7.91;100.00
64253;BME280;50592;52.958;-7.470;2023-02-19T07:59:34;101573.25;;;7.93;100.00
64253;BME280;50592;52.958;-7.470;2023-02-19T08:01:59;101569.00;;;7.90;100.00
64253;BME280;50592;52.958;-7.470;2023-02-19T08:04:46;101571.53;;;7.92;100.00
64253;BME280;50592;52.958;-7.470;2023-02-19T08:07:12;101580.59;;;7.88;100.00
64253;BME280;50592;52.958;-7.470;2023-02-19T08:09:37;101578.97;;;7.85;100.00
64253;BME280;50592;52.958;-7.470;2023-02-19T08:12:03;101595.44;;;7.89;100.00
64253;BME280;50592;52.958;-7.470;2023-02-19T08:14:47;101594.63;;;7.88;100.00
64253;BME280;50592;52.958;-7.470;2023-02-19T08:17:13;101614.63;;;7.91;100.00
64253;BME280;50592;52.958;-7.470;2023-02-19T08:19:39;101603.13;;;7.92;100.00
64253;BME280;50592;52.958;-7.470;2023-02-19T08:22:04;101603.03;;;7.93;100.00
64253;BME280;50592;52.958;-7.470;2023-02-19T08:24:30;101601.06;;;7.97;100.00
64253;BME280;50592;52.958;-7.470;2023-02-19T08:26:58;101602.63;;;8.00;100.00
64253;BME280;50592;52.958;-7.470;2023-02-19T08:29:24;101604.25;;;8.02;100.00
64253;BME280;50592;52.958;-7.470;2023-02-19T08:31:49;101599.72;;;8.04;100.00
64253;BME280;50592;52.958;-7.470;2023-02-19T08:34:15;101594.53;;;8.03;100.00
64253;BME280;50592;52.958;-7.470;2023-02-19T08:36:41;101602.34;;;8.04;100.00
64253;BME280;50592;52.958;-7.470;2023-02-19T08:39:08;101593.63;;;8.04;100.00
64253;BME280;50592;52.958;-7.470;2023-02-19T08:41:34;101591.81;;;8.04;100.00
64253;BME280;50592;52.958;-7.470;2023-02-19T08:44:00;101584.97;;;8.02;100.00
64253;BME280;50592;52.958;-7.470;2023-02-19T08:46:26;101587.59;;;8.02;100.00
64253;BME280;50592;52.958;-7.470;2023-02-19T08:48:52;101588.25;;;8.05;100.00
64253;BME280;50592;52.958;-7.470;2023-02-19T08:51:18;101579.41;;;8.06;100.00
64253;BME280;50592;52.958;-7.470;2023-02-19T08:53:44;101582.78;;;8.09;100.00
64253;BME280;50592;52.958;-7.470;2023-02-19T08:56:12;101583.31;;;8.14;100.00
64253;BME280;50592;52.958;-7.470;2023-02-19T08:58:39;101584.06;;;8.16;100.00
64253;BME280;50592;52.958;-7.470;2023-02-19T09:01:14;101583.75;;;8.21;100.00
64253;BME280;50592;52.958;-7.470;2023-02-19T09:03:41;101583.88;;;8.19;100.00
64253;BME280;50592;52.958;-7.470;2023-02-19T09:06:09;101573.03;;;8.24;100.00
64253;BME280;50592;52.958;-7.470;2023-02-19T09:08:37;101569.38;;;8.26;100.00
64253;BME280;50592;52.958;-7.470;2023-02-19T09:11:04;101570.09;;;8.28;100.00
64253;BME280;50592;52.958;-7.470;2023-02-19T09:13:31;101580.72;;;8.27;100.00
64253;BME280;50592;52.958;-7.470;2023-02-19T09:15:57;101580.94;;;8.24;100.00
64253;BME280;50592;52.958;-7.470;2023-02-19T09:18:24;101585.28;;;8.25;100.00
64253;BME280;50592;52.958;-7.470;2023-02-19T09:20:50;101586.94;;;8.26;100.00
64253;BME280;50592;52.958;-7.470;2023-02-19T09:23:16;101586.75;;;8.29;100.00
64253;BME280;50592;52.958;-7.470;2023-02-19T09:25:42;101603.41;;;8.29;100.00
64253;BME280;50592;52.958;-7.470;2023-02-19T09:28:07;101588.41;;;8.30;100.00
64253;BME280;50592;52.958;-7.470;2023-02-19T09:30:33;101598.13;;;8.29;100.00
64253;BME280;50592;52.958;-7.470;2023-02-19T09:32:59;101600.78;;;8.29;100.00
64253;BME280;50592;52.958;-7.470;2023-02-19T09:35:24;101604.13;;;8.31;100.00
64253;BME280;50592;52.958;-7.470;2023-02-19T09:37:50;101590.13;;;8.31;100.00
64253;BME280;50592;52.958;-7.470;2023-02-19T09:40:16;101590.03;;;8.32;100.00
64253;BME280;50592;52.958;-7.470;2023-02-19T09:42:47;101596.97;;;8.34;100.00
64253;BME280;50592;52.958;-7.470;2023-02-19T09:45:20;101604.56;;;8.38;100.00
64253;BME280;50592;52.958;-7.470;2023-02-19T09:47:46;101615.97;;;8.39;100.00
64253;BME280;50592;52.958;-7.470;2023-02-19T09:50:16;101621.38;;;8.50;100.00
64253;BME280;50592;52.958;-7.470;2023-02-19T09:52:52;101625.22;;;8.59;100.00
64253;BME280;50592;52.958;-7.470;2023-02-19T09:57:59;101622.81;;;8.69;100.00
64253;BME280;50592;52.958;-7.470;2023-02-19T10:00:30;101626.28;;;8.69;100.00
64253;BME280;50592;52.958;-7.470;2023-02-19T10:03:03;101613.09;;;8.69;100.00
64253;BME280;50592;52.958;-7.470;2023-02-19T10:05:31;101619.66;;;8.77;100.00
64253;BME280;50592;52.958;-7.470;2023-02-19T10:07:58;101616.72;;;8.81;100.00
64253;BME280;50592;52.958;-7.470;2023-02-19T10:10:28;101622.84;;;8.95;100.00
64253;BME280;50592;52.958;-7.470;2023-02-19T10:13:01;101624.88;;;9.04;100.00
64253;BME280;50592;52.958;-7.470;2023-02-19T10:15:40;101623.38;;;9.13;100.00
64253;BME280;50592;52.958;-7.470;2023-02-19T10:18:09;101606.09;;;9.09;100.00
64253;BME280;50592;52.958;-7.470;2023-02-19T10:20:35;101606.81;;;9.11;100.00
64253;BME280;50592;52.958;-7.470;2023-02-19T10:23:12;101603.63;;;9.19;100.00
64253;BME280;50592;52.958;-7.470;2023-02-19T10:25:43;101594.03;;;9.18;100.00
64253;BME280;50592;52.958;-7.470;2023-02-19T10:28:14;101593.94;;;9.20;100.00
64253;BME280;50592;52.958;-7.470;2023-02-19T10:30:40;101598.34;;;9.19;100.00
64253;BME280;50592;52.958;-7.470;2023-02-19T10:33:12;101599.09;;;9.21;100.00
64253;BME280;50592;52.958;-7.470;2023-02-19T10:38:18;101602.81;;;9.32;100.00
64253;BME280;50592;52.958;-7.470;2023-02-19T10:40:45;101606.38;;;9.30;100.00
64253;BME280;50592;52.958;-7.470;2023-02-19T10:43:39;101598.88;;;9.37;100.00
64253;BME280;50592;52.958;-7.470;2023-02-19T10:46:20;101590.97;;;9.37;100.00
64253;BME280;50592;52.958;-7.470;2023-02-19T10:49:02;101590.09;;;9.37;100.00
64253;BME280;50592;52.958;-7.470;2023-02-19T10:51:35;101577.88;;;9.36;100.00
64253;BME280;50592;52.958;-7.470;2023-02-19T10:54:18;101586.13;;;9.31;100.00
64253;BME280;50592;52.958;-7.470;2023-02-19T10:56:44;101592.47;;;9.28;100.00
64253;BME280;50592;52.958;-7.470;2023-02-19T10:59:28;101590.22;;;9.35;100.00
64253;BME280;50592;52.958;-7.470;2023-02-19T11:01:57;101599.41;;;9.42;100.00
64253;BME280;50592;52.958;-7.470;2023-02-19T11:04:33;101605.94;;;9.50;100.00
64253;BME280;50592;52.958;-7.470;2023-02-19T11:07:10;101602.75;;;9.58;100.00
64253;BME280;50592;52.958;-7.470;2023-02-19T11:09:41;101598.94;;;9.62;100.00
64253;BME280;50592;52.958;-7.470;2023-02-19T11:12:11;101600.75;;;9.61;100.00
64253;BME280;50592;52.958;-7.470;2023-02-19T11:14:42;101605.16;;;9.61;100.00
64253;BME280;50592;52.958;-7.470;2023-02-19T11:17:28;101595.13;;;9.66;100.00
64253;BME280;50592;52.958;-7.470;2023-02-19T11:19:56;101591.16;;;9.60;100.00
64253;BME280;50592;52.958;-7.470;2023-02-19T11:22:39;101597.09;;;9.75;100.00
64253;BME280;50592;52.958;-7.470;2023-02-19T11:25:20;101593.91;;;9.83;100.00
64253;BME280;50592;52.958;-7.470;2023-02-19T11:27:54;101594.13;;;9.80;100.00
64253;BME280;50592;52.958;-7.470;2023-02-19T11:32:55;101590.81;;;9.89;100.00
64253;BME280;50592;52.958;-7.470;2023-02-19T11:35:22;101577.16;;;9.96;100.00
64253;BME280;50592;52.958;-7.470;2023-02-19T11:40:39;101570.78;;;10.11;100.00
64253;BME280;50592;52.958;-7.470;2023-02-19T11:53:45;101553.44;;;10.79;100.00
64253;BME280;50592;52.958;-7.470;2023-02-19T11:56:18;101552.00;;;10.86;100.00
64253;BME280;50592;52.958;-7.470;2023-02-19T11:59:02;101543.38;;;10.96;100.00
64253;BME280;50592;52.958;-7.470;2023-02-19T12:02:01;101547.69;;;10.97;100.00
64253;BME280;50592;52.958;-7.470;2023-02-19T12:10:23;101520.03;;;11.24;100.00
64253;BME280;50592;52.958;-7.470;2023-02-19T12:13:11;101514.84;;;11.34;100.00
64253;BME280;50592;52.958;-7.470;2023-02-19T12:24:42;101498.22;;;11.43;100.00
64253;BME280;50592;52.958;-7.470;2023-02-19T12:33:26;101471.53;;;11.68;100.00
64253;BME280;50592;52.958;-7.470;2023-02-19T12:41:14;101472.16;;;11.27;100.00
64253;BME280;50592;52.958;-7.470;2023-02-19T12:43:50;101454.38;;;11.18;100.00
64253;BME280;50592;52.958;-7.470;2023-02-19T12:46:30;101463.00;;;11.20;100.00
64253;BME280;50592;52.958;-7.470;2023-02-19T12:49:03;101459.91;;;11.14;100.00
64253;BME280;50592;52.958;-7.470;2023-02-19T12:52:21;101460.84;;;11.13;100.00
64253;BME280;50592;52.958;-7.470;2023-02-19T12:54:52;101459.31;;;11.11;100.00
64253;BME280;50592;52.958;-7.470;2023-02-19T12:57:24;101454.00;;;11.22;100.00
64253;BME280;50592;52.958;-7.470;2023-02-19T12:59:52;101447.72;;;11.23;100.00
64253;BME280;50592;52.958;-7.470;2023-02-19T13:02:32;101449.72;;;11.43;100.00
64253;BME280;50592;52.958;-7.470;2023-02-19T13:05:07;101440.06;;;11.53;100.00
64253;BME280;50592;52.958;-7.470;2023-02-19T13:07:44;101439.69;;;11.58;100.00
64253;BME280;50592;52.958;-7.470;2023-02-19T13:12:46;101444.09;;;11.69;100.00
64253;BME280;50592;52.958;-7.470;2023-02-19T13:15:17;101439.38;;;11.72;100.00
64253;BME280;50592;52.958;-7.470;2023-02-19T13:17:51;101437.78;;;11.81;100.00
64253;BME280;50592;52.958;-7.470;2023-02-19T13:20:38;101425.69;;;11.88;100.00
64253;BME280;50592;52.958;-7.470;2023-02-19T13:23:22;101418.72;;;11.87;100.00
64253;BME280;50592;52.958;-7.470;2023-02-19T13:37:05;101416.72;;;11.79;100.00
64253;BME280;50592;52.958;-7.470;2023-02-19T13:39:32;101411.25;;;11.93;100.00
64253;BME280;50592;52.958;-7.470;2023-02-19T13:41:58;101418.91;;;11.74;100.00
64253;BME280;50592;52.958;-7.470;2023-02-19T13:44:27;101424.78;;;11.78;100.00
64253;BME280;50592;52.958;-7.470;2023-02-19T13:46:54;101420.53;;;11.87;100.00
64253;BME280;50592;52.958;-7.470;2023-02-19T13:49:38;101418.34;;;11.92;100.00
64253;BME280;50592;52.958;-7.470;2023-02-19T13:54:49;101412.44;;;11.88;100.00
64253;BME280;50592;52.958;-7.470;2023-02-19T13:59:50;101413.28;;;11.89;100.00
64253;BME280;50592;52.958;-7.470;2023-02-19T14:07:48;101400.03;;;11.68;100.00
64253;BME280;50592;52.958;-7.470;2023-02-19T14:19:12;101402.91;;;11.97;100.00
64253;BME280;50592;52.958;-7.470;2023-02-19T14:21:39;101393.25;;;11.96;100.00
64253;BME280;50592;52.958;-7.470;2023-02-19T14:24:10;101385.03;;;11.99;100.00
64253;BME280;50592;52.958;-7.470;2023-02-19T14:26:39;101384.22;;;11.99;100.00
64253;BME280;50592;52.958;-7.470;2023-02-19T14:29:10;101384.53;;;12.06;100.00
64253;BME280;50592;52.958;-7.470;2023-02-19T14:31:39;101375.16;;;12.01;100.00
64253;BME280;50592;52.958;-7.470;2023-02-19T14:34:19;101360.66;;;12.06;100.00
64253;BME280;50592;52.958;-7.470;2023-02-19T14:36:58;101354.78;;;12.13;100.00
64253;BME280;50592;52.958;-7.470;2023-02-19T14:39:29;101334.97;;;12.18;100.00
64253;BME280;50592;52.958;-7.470;2023-02-19T14:41:58;101333.59;;;12.23;100.00